createdAt,value
2022-12-18T00:00:03.898Z,32.71
2022-12-18T00:01:03.887Z,32.71
2022-12-18T00:02:03.914Z,32.81
2022-12-18T00:03:04.005Z,32.61
2022-12-18T00:04:03.945Z,32.71
2022-12-18T00:05:03.868Z,32.61
2022-12-18T00:06:03.824Z,32.61
2022-12-18T00:07:03.821Z,32.71
2022-12-18T00:08:03.857Z,32.61
2022-12-18T00:09:03.828Z,32.61
2022-12-18T00:10:03.759Z,32.71
2022-12-18T00:11:03.816Z,32.71
2022-12-18T00:13:06.641Z,32.61
2022-12-18T00:14:03.767Z,32.61
2022-12-18T00:15:03.729Z,32.51
2022-12-18T00:16:03.758Z,32.61
2022-12-18T00:17:04.407Z,32.51
2022-12-18T00:18:03.670Z,32.61
2022-12-18T00:19:03.734Z,32.61
2022-12-18T00:20:03.671Z,32.61
2022-12-18T00:21:03.705Z,32.51
2022-12-18T00:22:03.654Z,32.51
2022-12-18T00:23:03.647Z,32.51
2022-12-18T00:24:03.638Z,32.51
2022-12-18T00:25:03.658Z,32.51
2022-12-18T00:26:03.605Z,32.51
2022-12-18T00:27:03.648Z,32.42
2022-12-18T00:28:03.564Z,32.51
2022-12-18T00:29:03.602Z,32.42
2022-12-18T00:30:03.590Z,32.42
2022-12-18T00:31:03.617Z,32.51
2022-12-18T00:32:03.692Z,32.42
2022-12-18T00:33:03.645Z,32.51
2022-12-18T00:34:03.547Z,32.51
2022-12-18T00:35:03.526Z,32.51
2022-12-18T00:36:03.522Z,32.42
2022-12-18T00:37:03.664Z,32.51
2022-12-18T00:38:03.464Z,32.51
2022-12-18T00:39:03.496Z,32.51
2022-12-18T00:40:03.439Z,32.51
2022-12-18T00:41:03.471Z,32.42
2022-12-18T00:42:03.451Z,32.51
2022-12-18T00:43:03.446Z,32.42
2022-12-18T00:44:03.428Z,32.51
2022-12-18T00:45:07.621Z,32.51
2022-12-18T00:46:03.459Z,32.42
2022-12-18T00:47:03.490Z,32.42
2022-12-18T00:48:03.374Z,32.51
2022-12-18T00:49:03.367Z,32.31
2022-12-18T00:50:03.337Z,32.51
2022-12-18T00:51:03.369Z,32.42
2022-12-18T00:52:03.310Z,32.42
2022-12-18T00:53:03.348Z,32.51
2022-12-18T00:54:03.311Z,32.42
2022-12-18T00:55:06.483Z,32.31
2022-12-18T00:56:03.344Z,32.42
2022-12-18T00:57:03.389Z,32.31
2022-12-18T00:58:03.237Z,32.31
2022-12-18T00:59:03.576Z,32.42
2022-12-18T01:00:03.214Z,32.42
2022-12-18T01:01:03.401Z,32.31
2022-12-18T01:02:03.330Z,32.31
2022-12-18T01:03:03.347Z,32.31
2022-12-18T01:04:03.171Z,32.42
2022-12-18T01:05:03.217Z,32.31
2022-12-18T01:06:03.175Z,32.42
2022-12-18T01:07:03.204Z,32.31
2022-12-18T01:08:03.163Z,32.31
2022-12-18T01:09:03.260Z,32.42
2022-12-18T01:10:03.108Z,32.42
2022-12-18T01:11:03.183Z,32.51
2022-12-18T01:12:03.086Z,32.42
2022-12-18T01:13:03.128Z,32.42
2022-12-18T01:14:03.113Z,32.53
2022-12-18T01:15:03.082Z,32.43
2022-12-18T01:16:03.119Z,32.53
2022-12-18T01:17:03.081Z,32.43
2022-12-18T01:18:03.031Z,32.43
2022-12-18T01:19:03.117Z,32.33
2022-12-18T01:20:03.001Z,32.53
2022-12-18T01:21:03.107Z,32.33
2022-12-18T01:22:03.027Z,32.43
2022-12-18T01:23:03.009Z,32.33
2022-12-18T01:24:03.003Z,32.43
2022-12-18T01:25:03.079Z,32.43
2022-12-18T01:26:02.937Z,32.43
2022-12-18T01:27:02.983Z,32.43
2022-12-18T01:28:03.034Z,32.43
2022-12-18T01:29:02.975Z,32.53
2022-12-18T01:30:02.999Z,32.33
2022-12-18T01:31:02.918Z,32.43
2022-12-18T01:32:03.004Z,32.53
2022-12-18T01:33:02.889Z,32.43
2022-12-18T01:34:02.873Z,32.33
2022-12-18T01:35:03.000Z,32.43
2022-12-18T01:36:02.856Z,32.43
2022-12-18T01:37:02.857Z,32.33
2022-12-18T01:38:02.805Z,32.53
2022-12-18T01:39:02.872Z,32.53
2022-12-18T01:40:02.785Z,32.43
2022-12-18T01:41:02.828Z,32.53
2022-12-18T01:42:02.852Z,32.43
2022-12-18T01:43:02.787Z,32.43
2022-12-18T01:44:02.811Z,32.33
2022-12-18T01:45:02.771Z,32.43
2022-12-18T01:46:02.771Z,32.33
2022-12-18T01:47:02.810Z,32.33
2022-12-18T01:48:02.714Z,32.33
2022-12-18T01:49:02.740Z,32.43
2022-12-18T01:50:02.739Z,32.43
2022-12-18T01:51:02.690Z,32.53
2022-12-18T01:52:02.652Z,32.33
2022-12-18T01:53:02.699Z,32.33
2022-12-18T01:54:02.673Z,32.33
2022-12-18T01:55:02.652Z,32.43
2022-12-18T01:56:02.655Z,32.33
2022-12-18T01:57:02.653Z,32.33
2022-12-18T01:58:02.591Z,32.33
2022-12-18T01:59:02.639Z,32.33
2022-12-18T02:00:02.582Z,32.23
2022-12-18T02:01:02.686Z,32.33
2022-12-18T02:02:02.681Z,32.23
2022-12-18T02:04:24.450Z,32.33
2022-12-18T02:04:29.383Z,32.23
2022-12-18T02:05:29.225Z,32.23
2022-12-18T02:06:29.285Z,32.33
2022-12-18T02:07:29.232Z,32.33
2022-12-18T02:08:29.223Z,32.33
2022-12-18T02:09:29.180Z,32.23
2022-12-18T02:10:29.241Z,32.23
2022-12-18T02:11:29.177Z,32.23
2022-12-18T02:12:29.207Z,32.14
2022-12-18T02:13:29.169Z,32.33
2022-12-18T02:14:29.243Z,32.23
2022-12-18T02:15:29.143Z,32.23
2022-12-18T02:16:29.189Z,32.33
2022-12-18T02:17:29.113Z,32.23
2022-12-18T02:18:29.148Z,32.33
2022-12-18T02:19:29.084Z,32.23
2022-12-18T02:21:28.127Z,32.23
2022-12-18T02:21:32.972Z,32.23
2022-12-18T02:22:33.935Z,32.23
2022-12-18T02:23:42.319Z,32.14
2022-12-18T02:24:32.947Z,32.23
2022-12-18T02:25:33.189Z,32.23
2022-12-18T02:26:32.953Z,32.23
2022-12-18T02:27:32.892Z,32.43
2022-12-18T02:28:32.928Z,32.23
2022-12-18T02:29:32.896Z,32.23
2022-12-18T02:30:32.948Z,32.23
2022-12-18T02:31:32.871Z,32.23
2022-12-18T02:32:32.853Z,32.23
2022-12-18T02:33:32.813Z,32.14
2022-12-18T02:34:32.883Z,32.23
2022-12-18T02:35:32.805Z,32.14
2022-12-18T02:36:32.865Z,32.14
2022-12-18T02:37:32.799Z,32.23
2022-12-18T02:38:32.808Z,32.33
2022-12-18T02:39:32.749Z,32.14
2022-12-18T02:40:32.806Z,32.14
2022-12-18T02:41:32.766Z,32.14
2022-12-18T02:42:32.744Z,32.23
2022-12-18T02:43:32.731Z,32.23
2022-12-18T02:44:32.721Z,32.33
2022-12-18T02:45:32.738Z,32.23
2022-12-18T02:46:32.745Z,32.23
2022-12-18T02:47:32.787Z,32.14
2022-12-18T02:48:32.705Z,32.14
2022-12-18T02:49:32.690Z,32.14
2022-12-18T02:50:32.666Z,32.23
2022-12-18T02:51:32.757Z,32.23
2022-12-18T02:52:32.835Z,32.23
2022-12-18T02:53:32.614Z,32.23
2022-12-18T02:54:32.643Z,32.14
2022-12-18T02:55:32.607Z,32.14
2022-12-18T02:56:32.601Z,32.14
2022-12-18T02:57:32.555Z,32.14
2022-12-18T02:58:32.667Z,32.23
2022-12-18T03:00:42.001Z,32.14
2022-12-18T03:01:43.152Z,32.14
2022-12-18T03:02:43.163Z,32.14
2022-12-18T03:03:43.186Z,32.14
2022-12-18T03:04:42.981Z,32.14
2022-12-18T03:05:42.943Z,32.14
2022-12-18T03:06:42.939Z,32.14
2022-12-18T03:07:42.920Z,32.14
2022-12-18T03:08:42.941Z,32.23
2022-12-18T03:09:42.877Z,32.14
2022-12-18T03:10:42.891Z,32.14
2022-12-18T03:11:42.885Z,32.14
2022-12-18T03:12:42.982Z,32.14
2022-12-18T03:13:43.164Z,32.14
2022-12-18T03:14:42.898Z,32.03
2022-12-18T03:15:42.814Z,32.03
2022-12-18T03:16:42.872Z,32.14
2022-12-18T03:17:42.787Z,32.14
2022-12-18T03:18:42.814Z,32.14
2022-12-18T03:19:42.801Z,32.14
2022-12-18T03:20:42.801Z,32.14
2022-12-18T03:21:42.787Z,32.03
2022-12-18T03:22:42.832Z,32.14
2022-12-18T03:23:43.031Z,32.03
2022-12-18T03:24:42.744Z,32.03
2022-12-18T03:25:42.738Z,32.03
2022-12-18T03:26:42.694Z,32.03
2022-12-18T03:27:42.745Z,32.14
2022-12-18T03:28:42.680Z,32.03
2022-12-18T03:29:42.730Z,32.03
2022-12-18T03:30:42.720Z,32.03
2022-12-18T03:31:42.667Z,32.03
2022-12-18T03:32:42.663Z,32.03
2022-12-18T03:33:43.065Z,32.14
2022-12-18T03:34:42.830Z,32.03
2022-12-18T03:35:42.695Z,32.03
2022-12-18T03:36:42.587Z,31.93
2022-12-18T03:37:42.680Z,32.14
2022-12-18T03:38:42.744Z,31.93
2022-12-18T03:39:42.608Z,32.03
2022-12-18T03:40:42.549Z,32.14
2022-12-18T03:41:42.808Z,31.93
2022-12-18T03:42:42.555Z,32.03
2022-12-18T03:43:42.826Z,31.93
2022-12-18T03:44:42.537Z,32.03
2022-12-18T03:45:42.541Z,31.93
2022-12-18T03:46:42.486Z,31.93
2022-12-18T03:47:42.532Z,31.93
2022-12-18T03:48:42.464Z,31.93
2022-12-18T03:49:42.527Z,31.93
2022-12-18T03:50:42.496Z,31.84
2022-12-18T03:51:42.458Z,31.93
2022-12-18T03:52:42.450Z,31.93
2022-12-18T03:53:42.955Z,31.93
2022-12-18T03:54:42.398Z,31.84
2022-12-18T03:55:42.445Z,31.93
2022-12-18T03:56:42.421Z,31.93
2022-12-18T03:57:42.400Z,32.03
2022-12-18T03:58:42.370Z,31.93
2022-12-18T03:59:42.401Z,31.93
2022-12-18T04:00:42.361Z,31.93
2022-12-18T04:01:42.492Z,31.93
2022-12-18T04:02:42.956Z,31.93
2022-12-18T04:03:42.729Z,31.84
2022-12-18T04:04:42.325Z,31.84
2022-12-18T04:05:42.323Z,31.84
2022-12-18T04:06:42.276Z,31.74
2022-12-18T04:07:42.320Z,31.84
2022-12-18T04:08:42.288Z,31.84
2022-12-18T04:09:42.296Z,31.84
2022-12-18T04:10:42.263Z,31.93
2022-12-18T04:11:42.253Z,31.84
2022-12-18T04:12:42.437Z,31.93
2022-12-18T04:13:42.764Z,31.84
2022-12-18T04:14:42.213Z,31.84
2022-12-18T04:15:42.388Z,31.84
2022-12-18T04:16:42.202Z,31.84
2022-12-18T04:17:42.188Z,31.84
2022-12-18T04:18:42.148Z,31.84
2022-12-18T04:19:42.195Z,31.84
2022-12-18T04:20:42.227Z,31.84
2022-12-18T04:21:42.178Z,31.84
2022-12-18T04:24:44.525Z,31.84
2022-12-18T04:24:49.426Z,31.84
2022-12-18T04:25:49.364Z,31.84
2022-12-18T04:26:49.332Z,31.84
2022-12-18T04:27:49.339Z,31.84
2022-12-18T04:28:49.339Z,31.84
2022-12-18T04:29:49.266Z,31.84
2022-12-18T04:30:49.357Z,31.93
2022-12-18T04:32:59.300Z,31.84
2022-12-18T04:34:00.217Z,31.74
2022-12-18T04:35:00.154Z,31.74
2022-12-18T04:36:01.037Z,31.84
2022-12-18T04:37:21.839Z,31.84
2022-12-18T04:38:00.185Z,31.84
2022-12-18T04:39:00.623Z,31.84
2022-12-18T04:40:00.144Z,31.84
2022-12-18T04:41:00.118Z,31.82
2022-12-18T04:42:00.123Z,31.72
2022-12-18T04:43:00.255Z,31.62
2022-12-18T04:44:00.217Z,31.62
2022-12-18T04:45:00.043Z,31.62
2022-12-18T04:46:00.252Z,31.62
2022-12-18T04:47:00.058Z,31.72
2022-12-18T04:48:00.141Z,31.72
2022-12-18T04:49:00.004Z,31.72
2022-12-18T04:50:00.028Z,31.62
2022-12-18T04:51:00.015Z,31.72
2022-12-18T04:51:59.993Z,31.72
2022-12-18T04:52:59.993Z,31.72
2022-12-18T04:54:00.004Z,31.72
2022-12-18T04:54:59.949Z,31.62
2022-12-18T04:56:00.001Z,31.62
2022-12-18T04:56:59.913Z,31.62
2022-12-18T04:57:59.926Z,31.62
2022-12-18T04:58:59.927Z,31.72
2022-12-18T04:59:59.937Z,31.62
2022-12-18T05:00:59.902Z,31.62
2022-12-18T05:01:59.986Z,31.52
2022-12-18T05:02:59.928Z,31.72
2022-12-18T05:03:59.916Z,31.72
2022-12-18T05:04:59.848Z,31.82
2022-12-18T05:05:59.845Z,31.74
2022-12-18T05:06:59.869Z,31.72
2022-12-18T05:07:59.825Z,31.72
2022-12-18T05:08:59.927Z,31.72
2022-12-18T05:09:59.841Z,31.62
2022-12-18T05:10:59.768Z,31.72
2022-12-18T05:11:59.813Z,31.84
2022-12-18T05:13:01.353Z,31.74
2022-12-18T05:13:59.783Z,31.54
2022-12-18T05:14:59.797Z,31.62
2022-12-18T05:15:59.792Z,31.63
2022-12-18T05:17:15.412Z,31.62
2022-12-18T05:17:59.747Z,31.63
2022-12-18T05:18:59.718Z,31.52
2022-12-18T05:19:59.695Z,31.54
2022-12-18T05:20:59.706Z,31.63
2022-12-18T05:21:59.714Z,31.63
2022-12-18T05:22:59.639Z,31.63
2022-12-18T05:23:59.682Z,31.74
2022-12-18T05:24:59.616Z,31.54
2022-12-18T05:25:59.648Z,31.74
2022-12-18T05:26:59.633Z,31.63
2022-12-18T05:27:59.613Z,31.63
2022-12-18T05:28:59.615Z,31.54
2022-12-18T05:29:59.619Z,31.74
2022-12-18T05:30:59.589Z,31.63
2022-12-18T05:31:59.623Z,31.63
2022-12-18T05:32:59.541Z,31.63
2022-12-18T05:33:59.549Z,31.63
2022-12-18T05:34:59.563Z,31.74
2022-12-18T05:35:59.566Z,31.63
2022-12-18T05:36:59.509Z,31.74
2022-12-18T05:37:59.523Z,31.63
2022-12-18T05:39:10.687Z,31.63
2022-12-18T05:39:59.489Z,31.63
2022-12-18T05:40:59.486Z,31.54
2022-12-18T05:41:59.502Z,31.54
2022-12-18T05:42:59.521Z,31.54
2022-12-18T05:43:59.479Z,31.74
2022-12-18T05:44:59.404Z,31.74
2022-12-18T05:45:59.422Z,31.54
2022-12-18T05:46:59.497Z,31.54
2022-12-18T05:47:59.415Z,31.54
2022-12-18T05:48:59.390Z,31.54
2022-12-18T05:49:59.414Z,31.54
2022-12-18T05:50:59.356Z,31.63
2022-12-18T05:51:59.358Z,31.54
2022-12-18T05:52:59.359Z,31.54
2022-12-18T05:53:59.368Z,31.54
2022-12-18T05:54:59.312Z,31.54
2022-12-18T05:55:59.360Z,31.54
2022-12-18T05:56:59.278Z,31.54
2022-12-18T05:57:59.333Z,31.54
2022-12-18T05:58:59.287Z,31.54
2022-12-18T05:59:59.287Z,31.54
2022-12-18T06:00:59.267Z,31.54
2022-12-18T06:01:59.468Z,31.63
2022-12-18T06:02:59.344Z,31.54
2022-12-18T06:03:59.757Z,31.63
2022-12-18T06:04:59.198Z,31.54
2022-12-18T06:05:59.314Z,31.54
2022-12-18T06:07:13.818Z,31.54
2022-12-18T06:07:59.270Z,31.54
2022-12-18T06:09:03.545Z,31.63
2022-12-18T06:09:59.199Z,31.54
2022-12-18T06:10:59.143Z,31.63
2022-12-18T06:11:59.190Z,31.54
2022-12-18T06:12:59.131Z,31.54
2022-12-18T06:14:00.303Z,31.63
2022-12-18T06:14:59.119Z,31.63
2022-12-18T06:15:59.177Z,31.63
2022-12-18T06:16:59.185Z,31.63
2022-12-18T06:17:59.176Z,31.54
2022-12-18T06:18:59.149Z,31.63
2022-12-18T06:19:59.194Z,31.63
2022-12-18T06:20:59.061Z,31.54
2022-12-18T06:21:59.045Z,31.63
2022-12-18T06:22:59.208Z,31.54
2022-12-18T06:23:59.073Z,31.63
2022-12-18T06:24:59.184Z,31.63
2022-12-18T06:25:59.013Z,31.63
2022-12-18T06:26:58.989Z,31.54
2022-12-18T06:27:58.984Z,31.63
2022-12-18T06:28:58.971Z,31.54
2022-12-18T06:29:59.023Z,31.54
2022-12-18T06:30:59.118Z,31.54
2022-12-18T06:31:59.038Z,31.63
2022-12-18T06:32:58.900Z,31.54
2022-12-18T06:33:58.918Z,31.63
2022-12-18T06:34:58.914Z,31.54
2022-12-18T06:36:01.112Z,31.54
2022-12-18T06:36:58.887Z,31.44
2022-12-18T06:37:58.909Z,31.44
2022-12-18T06:38:58.834Z,31.54
2022-12-18T06:39:58.853Z,31.63
2022-12-18T06:40:58.915Z,31.54
2022-12-18T06:41:58.866Z,31.63
2022-12-18T06:42:58.799Z,31.54
2022-12-18T06:44:00.040Z,31.63
2022-12-18T06:44:58.775Z,31.54
2022-12-18T06:45:58.903Z,31.54
2022-12-18T06:46:58.786Z,31.54
2022-12-18T06:47:58.771Z,31.54
2022-12-18T06:48:58.763Z,31.54
2022-12-18T06:49:58.787Z,31.54
2022-12-18T06:50:58.709Z,31.54
2022-12-18T06:51:58.762Z,31.54
2022-12-18T06:52:58.685Z,31.63
2022-12-18T06:53:58.702Z,31.54
2022-12-18T06:54:58.699Z,31.54
2022-12-18T06:55:58.709Z,31.63
2022-12-18T06:56:58.644Z,31.63
2022-12-18T06:57:58.668Z,31.54
2022-12-18T06:58:58.656Z,31.63
2022-12-18T06:59:58.725Z,31.54
2022-12-18T07:00:58.672Z,31.54
2022-12-18T07:01:58.727Z,31.44
2022-12-18T07:02:58.630Z,31.54
2022-12-18T07:03:58.630Z,31.54
2022-12-18T07:04:58.572Z,31.54
2022-12-18T07:05:58.578Z,31.54
2022-12-18T07:06:58.570Z,31.54
2022-12-18T07:07:58.652Z,31.44
2022-12-18T07:08:58.548Z,31.54
2022-12-18T07:09:58.703Z,31.54
2022-12-18T07:10:58.497Z,31.54
2022-12-18T07:11:58.547Z,31.54
2022-12-18T07:12:58.492Z,31.54
2022-12-18T07:13:58.490Z,31.44
2022-12-18T07:14:58.501Z,31.54
2022-12-18T07:17:18.151Z,31.54
2022-12-18T07:17:24.222Z,31.63
2022-12-18T07:18:22.927Z,31.54
2022-12-18T07:19:22.972Z,31.54
2022-12-18T07:20:22.934Z,31.54
2022-12-18T07:21:22.924Z,31.54
2022-12-18T07:22:22.913Z,31.44
2022-12-18T07:23:22.899Z,31.44
2022-12-18T07:24:22.889Z,31.44
2022-12-18T07:25:22.919Z,31.54
2022-12-18T07:26:22.860Z,31.44
2022-12-18T07:27:22.867Z,31.54
2022-12-18T07:28:22.877Z,31.34
2022-12-18T07:29:22.923Z,31.44
2022-12-18T07:30:22.817Z,31.44
2022-12-18T07:31:23.053Z,31.54
2022-12-18T07:32:22.798Z,31.44
2022-12-18T07:33:22.875Z,31.44
2022-12-18T07:34:22.786Z,31.44
2022-12-18T07:35:25.216Z,31.63
2022-12-18T07:36:22.767Z,31.44
2022-12-18T07:37:22.792Z,31.54
2022-12-18T07:38:22.748Z,31.54
2022-12-18T07:39:22.761Z,31.54
2022-12-18T07:40:22.697Z,31.44
2022-12-18T07:41:22.751Z,31.44
2022-12-18T07:42:22.740Z,31.44
2022-12-18T07:43:22.762Z,31.44
2022-12-18T07:44:22.656Z,31.44
2022-12-18T07:45:22.683Z,31.44
2022-12-18T07:46:22.744Z,31.34
2022-12-18T07:47:22.651Z,31.44
2022-12-18T07:48:22.637Z,31.34
2022-12-18T07:49:22.671Z,31.34
2022-12-18T07:50:22.629Z,31.44
2022-12-18T07:51:22.649Z,31.63
2022-12-18T07:52:25.937Z,32.03
2022-12-18T07:53:22.591Z,32.93
2022-12-18T07:54:22.679Z,33.22
2022-12-18T07:55:22.656Z,33.42
2022-12-18T07:56:27.845Z,33.42
2022-12-18T07:57:49.053Z,33.42
2022-12-18T07:58:22.546Z,33.72
2022-12-18T07:59:22.534Z,33.62
2022-12-18T08:00:22.519Z,33.52
2022-12-18T08:01:22.728Z,33.62
2022-12-18T08:02:22.596Z,33.62
2022-12-18T08:03:22.552Z,33.72
2022-12-18T08:04:22.493Z,33.72
2022-12-18T08:05:22.461Z,33.82
2022-12-18T08:06:23.772Z,33.42
2022-12-18T08:07:22.471Z,33.03
2022-12-18T08:08:22.439Z,32.93
2022-12-18T08:09:22.448Z,32.63
2022-12-18T08:10:22.389Z,32.63
2022-12-18T08:11:22.430Z,32.14
2022-12-18T08:12:22.356Z,31.84
2022-12-18T08:13:22.380Z,31.63
2022-12-18T08:14:22.395Z,31.24
2022-12-18T08:15:22.381Z,30.94
2022-12-18T08:16:22.482Z,30.94
2022-12-18T08:17:22.423Z,30.84
2022-12-18T08:18:22.319Z,31.14
2022-12-18T08:19:22.427Z,30.25
2022-12-18T08:20:22.314Z,30.46
2022-12-18T08:21:22.375Z,30.15
2022-12-18T08:22:22.302Z,30.35
2022-12-18T08:23:22.254Z,30.05
2022-12-18T08:24:22.283Z,30.05
2022-12-18T08:25:22.252Z,29.65
2022-12-18T08:26:22.261Z,29.55
2022-12-18T08:27:30.348Z,29.67
2022-12-18T08:28:22.227Z,29.55
2022-12-18T08:29:22.203Z,29.16
2022-12-18T08:30:22.222Z,29.37
2022-12-18T08:31:22.226Z,29.06
2022-12-18T08:32:22.254Z,28.97
2022-12-18T08:33:22.145Z,29.16
2022-12-18T08:34:22.246Z,28.86
2022-12-18T08:35:22.115Z,28.76
2022-12-18T08:36:22.158Z,28.76
2022-12-18T08:37:22.121Z,28.96
2022-12-18T08:38:22.124Z,29.06
2022-12-18T08:39:22.160Z,28.77
2022-12-18T08:40:22.164Z,28.96
2022-12-18T08:41:22.058Z,28.76
2022-12-18T08:42:22.129Z,28.86
2022-12-18T08:43:22.036Z,28.46
2022-12-18T08:44:22.094Z,28.76
2022-12-18T08:45:22.050Z,28.66
2022-12-18T08:46:22.166Z,28.66
2022-12-18T08:47:22.036Z,28.66
2022-12-18T08:48:22.479Z,28.96
2022-12-18T08:49:22.009Z,28.46
2022-12-18T08:50:21.987Z,28.86
2022-12-18T08:51:21.990Z,28.27
2022-12-18T08:56:30.903Z,28.27
2022-12-18T08:56:35.731Z,28.27
2022-12-18T08:57:35.827Z,27.97
2022-12-18T08:58:35.740Z,28.17
2022-12-18T08:59:35.676Z,27.97
2022-12-18T09:00:35.698Z,28.27
2022-12-18T09:01:35.896Z,27.97
2022-12-18T09:02:35.843Z,28.06
2022-12-18T09:03:35.694Z,27.97
2022-12-18T09:04:35.681Z,28.27
2022-12-18T09:05:35.625Z,28.06
2022-12-18T09:06:35.655Z,28.06
2022-12-18T09:07:35.616Z,28.06
2022-12-18T09:08:35.618Z,27.97
2022-12-18T09:09:35.613Z,28.36
2022-12-18T09:10:40.166Z,28.66
2022-12-18T09:11:35.548Z,28.06
2022-12-18T09:12:35.797Z,27.97
2022-12-18T09:13:35.553Z,27.77
2022-12-18T09:14:35.546Z,28.06
2022-12-18T09:15:35.542Z,28.36
2022-12-18T09:16:35.608Z,28.56
2022-12-18T09:17:35.488Z,28.46
2022-12-18T09:18:35.506Z,28.36
2022-12-18T09:19:35.503Z,28.17
2022-12-18T09:20:35.509Z,28.27
2022-12-18T09:21:36.901Z,28.36
2022-12-18T09:22:35.542Z,28.36
2022-12-18T09:23:35.414Z,28.77
2022-12-18T09:24:35.473Z,28.38
2022-12-18T09:25:35.404Z,28.38
2022-12-18T09:26:35.423Z,28.47
2022-12-18T09:27:35.439Z,28.88
2022-12-18T09:28:35.388Z,28.67
2022-12-18T09:29:35.401Z,28.88
2022-12-18T09:30:35.452Z,28.97
2022-12-18T09:31:35.330Z,28.88
2022-12-18T09:32:35.416Z,28.88
2022-12-18T09:33:35.309Z,29.67
2022-12-18T09:34:35.396Z,29.57
2022-12-18T09:35:35.324Z,29.67
2022-12-18T09:36:35.322Z,29.77
2022-12-18T09:37:35.300Z,29.67
2022-12-18T09:38:35.317Z,30.07
2022-12-18T09:39:36.204Z,29.96
2022-12-18T09:40:35.297Z,29.67
2022-12-18T09:41:35.245Z,30.07
2022-12-18T09:42:35.272Z,30.26
2022-12-18T09:43:35.230Z,30.07
2022-12-18T09:44:37.736Z,30.07
2022-12-18T09:45:35.222Z,29.96
2022-12-18T09:46:35.350Z,30.36
2022-12-18T09:47:35.160Z,30.56
2022-12-18T09:48:35.180Z,30.26
2022-12-18T09:49:35.307Z,30.26
2022-12-18T09:50:35.193Z,30.36
2022-12-18T09:51:35.128Z,30.16
2022-12-18T09:52:35.175Z,30.36
2022-12-18T09:53:35.097Z,30.56
2022-12-18T09:54:35.114Z,31.05
2022-12-18T09:55:37.620Z,30.96
2022-12-18T09:56:35.110Z,30.96
2022-12-18T09:57:35.079Z,30.96
2022-12-18T09:58:35.121Z,31.15
2022-12-18T09:59:35.157Z,30.86
2022-12-18T10:00:35.101Z,30.26
2022-12-18T10:01:41.760Z,30.26
2022-12-18T10:02:35.175Z,30.26
2022-12-18T10:03:35.079Z,30.47
2022-12-18T10:04:35.050Z,30.36
2022-12-18T10:05:35.056Z,30.16
2022-12-18T10:06:34.990Z,29.96
2022-12-18T10:07:34.998Z,30.26
2022-12-18T10:08:35.061Z,29.96
2022-12-18T10:09:34.986Z,29.68
2022-12-18T10:10:35.081Z,30.26
2022-12-18T10:11:34.913Z,30.18
2022-12-18T10:12:35.049Z,30.08
2022-12-18T10:13:34.888Z,30.16
2022-12-18T10:14:34.912Z,29.88
2022-12-18T10:15:34.948Z,30.16
2022-12-18T10:16:34.930Z,29.77
2022-12-18T10:17:34.877Z,29.77
2022-12-18T10:18:34.893Z,30.08
2022-12-18T10:19:34.973Z,29.96
2022-12-18T10:20:34.858Z,29.88
2022-12-18T10:21:34.828Z,29.98
2022-12-18T10:22:34.845Z,29.98
2022-12-18T10:23:34.781Z,29.98
2022-12-18T10:24:34.837Z,29.78
2022-12-18T10:25:34.761Z,29.88
2022-12-18T10:26:34.786Z,29.88
2022-12-18T10:27:34.765Z,29.88
2022-12-18T10:28:35.089Z,29.78
2022-12-18T10:29:34.817Z,29.88
2022-12-18T10:30:35.633Z,29.58
2022-12-18T10:31:34.821Z,29.88
2022-12-18T10:32:34.823Z,29.78
2022-12-18T10:33:34.686Z,29.88
2022-12-18T10:34:34.695Z,29.98
2022-12-18T10:35:34.715Z,29.88
2022-12-18T10:36:34.672Z,29.78
2022-12-18T10:37:34.676Z,29.38
2022-12-18T10:38:34.693Z,29.98
2022-12-18T10:39:34.616Z,29.78
2022-12-18T10:40:34.679Z,29.88
2022-12-18T10:41:34.661Z,29.88
2022-12-18T10:42:34.645Z,29.58
2022-12-18T10:43:34.624Z,29.68
2022-12-18T10:44:34.604Z,29.58
2022-12-18T10:45:34.777Z,29.98
2022-12-18T10:46:34.649Z,29.68
2022-12-18T10:47:34.528Z,29.48
2022-12-18T10:48:34.578Z,29.88
2022-12-18T10:49:34.505Z,29.58
2022-12-18T10:51:01.860Z,29.68
2022-12-18T10:51:34.554Z,29.88
2022-12-18T10:52:34.534Z,29.78
2022-12-18T10:53:34.484Z,29.68
2022-12-18T10:54:34.481Z,29.78
2022-12-18T10:55:34.477Z,29.88
2022-12-18T10:56:34.461Z,29.58
2022-12-18T10:57:34.453Z,29.78
2022-12-18T10:58:34.517Z,29.88
2022-12-18T11:01:48.226Z,29.78
2022-12-18T11:01:53.276Z,29.68
2022-12-18T11:02:53.298Z,29.68
2022-12-18T11:03:57.574Z,29.48
2022-12-18T11:04:53.092Z,29.48
2022-12-18T11:05:53.080Z,29.68
2022-12-18T11:06:53.053Z,29.68
2022-12-18T11:07:53.073Z,29.78
2022-12-18T11:08:53.005Z,29.88
2022-12-18T11:09:53.028Z,29.78
2022-12-18T11:10:53.011Z,29.88
2022-12-18T11:11:53.033Z,29.68
2022-12-18T11:12:52.984Z,29.88
2022-12-18T11:13:53.025Z,29.88
2022-12-18T11:14:52.945Z,30.08
2022-12-18T11:15:53.090Z,29.78
2022-12-18T11:17:52.968Z,29.90
2022-12-18T11:18:52.927Z,29.99
2022-12-18T11:19:53.456Z,29.90
2022-12-18T11:20:58.158Z,29.98
2022-12-18T11:21:53.007Z,29.88
2022-12-18T11:22:52.866Z,29.98
2022-12-18T11:23:52.903Z,29.98
2022-12-18T11:25:22.460Z,29.68
2022-12-18T11:25:52.887Z,29.88
2022-12-18T11:26:59.386Z,29.68
2022-12-18T11:27:52.838Z,29.68
2022-12-18T11:28:52.840Z,29.88
2022-12-18T11:29:52.815Z,29.78
2022-12-18T11:30:52.845Z,29.78
2022-12-18T11:31:52.850Z,30.18
2022-12-18T11:32:52.765Z,29.58
2022-12-18T11:34:19.633Z,29.78
2022-12-18T11:34:58.799Z,29.98
2022-12-18T11:35:52.760Z,29.78
2022-12-18T11:36:52.849Z,30.18
2022-12-18T11:37:52.761Z,29.58
2022-12-18T11:38:52.771Z,29.88
2022-12-18T11:39:52.881Z,27.99
2022-12-18T11:40:52.843Z,26.92
2022-12-18T11:41:52.717Z,25.62
2022-12-18T11:42:52.682Z,25.84
2022-12-18T11:43:52.665Z,27.52
2022-12-18T11:44:52.695Z,28.13
2022-12-18T11:45:52.657Z,29.22
2022-12-18T11:46:52.728Z,29.43
2022-12-18T11:47:52.655Z,29.03
2022-12-18T11:48:52.585Z,29.43
2022-12-18T11:49:52.679Z,29.52
2022-12-18T11:50:52.579Z,29.33
2022-12-18T11:51:52.590Z,29.41
2022-12-18T11:52:57.363Z,29.41
2022-12-18T11:53:52.565Z,29.61
2022-12-18T11:54:52.571Z,29.91
2022-12-18T11:55:52.574Z,30.11
2022-12-18T11:56:52.499Z,30.30
2022-12-18T11:57:52.541Z,30.51
2022-12-18T11:58:52.509Z,30.51
2022-12-18T11:59:52.525Z,30.60
2022-12-18T12:02:03.448Z,30.60
2022-12-18T12:03:02.766Z,30.60
2022-12-18T12:04:02.699Z,30.59
2022-12-18T12:05:02.704Z,30.69
2022-12-18T12:06:02.652Z,30.89
2022-12-18T12:07:03.420Z,30.79
2022-12-18T12:08:02.627Z,30.59
2022-12-18T12:09:03.218Z,30.69
2022-12-18T12:10:02.605Z,30.19
2022-12-18T12:11:02.620Z,29.99
2022-12-18T12:12:02.558Z,30.79
2022-12-18T12:13:02.651Z,30.79
2022-12-18T12:14:02.550Z,31.09
2022-12-18T12:16:54.574Z,31.09
2022-12-18T12:16:59.396Z,31.18
2022-12-18T12:17:59.424Z,31.18
2022-12-18T12:18:59.365Z,31.29
2022-12-18T12:19:59.379Z,31.29
2022-12-18T12:20:59.356Z,31.27
2022-12-18T12:21:59.405Z,31.37
2022-12-18T12:22:59.333Z,31.37
2022-12-18T12:23:59.355Z,31.37
2022-12-18T12:24:59.315Z,31.37
2022-12-18T12:25:59.718Z,31.57
2022-12-18T12:27:30.734Z,31.48
2022-12-18T12:27:59.316Z,31.67
2022-12-18T12:28:59.268Z,31.57
2022-12-18T12:30:00.220Z,31.57
2022-12-18T12:30:59.262Z,31.57
2022-12-18T12:31:59.347Z,31.57
2022-12-18T12:32:59.259Z,31.67
2022-12-18T12:33:59.273Z,31.57
2022-12-18T12:35:01.767Z,31.67
2022-12-18T12:35:59.233Z,31.67
2022-12-18T12:36:59.165Z,31.67
2022-12-18T12:37:59.217Z,31.67
2022-12-18T12:38:59.144Z,31.77
2022-12-18T12:39:59.167Z,31.77
2022-12-18T12:41:03.263Z,31.67
2022-12-18T12:42:59.258Z,31.87
2022-12-18T12:43:04.316Z,31.87
2022-12-18T12:44:04.691Z,31.87
2022-12-18T12:45:04.055Z,31.87
2022-12-18T12:46:04.167Z,31.87
2022-12-18T12:47:04.015Z,31.87
2022-12-18T12:48:04.036Z,31.77
2022-12-18T12:49:04.026Z,31.87
2022-12-18T12:50:04.080Z,31.77
2022-12-18T12:51:41.622Z,31.77
2022-12-18T12:52:04.024Z,31.87
2022-12-18T12:53:03.981Z,31.88
2022-12-18T12:54:04.039Z,31.87
2022-12-18T12:55:03.938Z,32.08
2022-12-18T12:56:03.986Z,31.87
2022-12-18T12:57:03.950Z,31.96
2022-12-18T12:58:03.936Z,31.96
2022-12-18T12:59:04.366Z,31.96
2022-12-18T13:00:04.010Z,31.96
2022-12-18T13:01:03.965Z,31.88
2022-12-18T13:02:03.913Z,30.89
2022-12-18T13:03:03.860Z,31.78
2022-12-18T13:04:03.913Z,31.68
2022-12-18T13:05:03.864Z,31.98